TimeMDT,TemperatureF,Dew PointF,Humidity,Sea Level PressureIn,VisibilityMPH,Wind Direction,Wind SpeedMPH,Gust SpeedMPH,PrecipitationIn,Events,Conditions,WindDirDegrees,DateUTC
12:51 AM,27.0,21.0,78,30.09,10.0,ESE,3.5,-,N/A,,Clear,110,2011-10-27 06:51:00
1:51 AM,27.0,19.9,75,30.07,10.0,Calm,Calm,-,N/A,,Clear,0,2011-10-27 07:51:00
2:51 AM,25.0,19.9,81,30.06,10.0,ESE,3.5,-,N/A,,Clear,120,2011-10-27 08:51:00
3:51 AM,25.0,21.0,85,30.04,10.0,East,3.5,-,N/A,,Clear,90,2011-10-27 09:51:00
4:51 AM,32.0,21.0,64,30.01,10.0,WSW,4.6,-,N/A,,Clear,240,2011-10-27 10:51:00
5:51 AM,34.0,21.0,59,30.01,10.0,WSW,11.5,-,N/A,,Clear,240,2011-10-27 11:51:00
6:51 AM,34.0,21.0,59,30.03,10.0,West,12.7,-,N/A,,Clear,260,2011-10-27 12:51:00
7:51 AM,32.0,19.9,61,30.04,10.0,WSW,11.5,-,N/A,,Partly Cloudy,240,2011-10-27 13:51:00
9:51 AM,42.1,23.0,47,30.04,10.0,West,17.3,25.3,N/A,,Scattered Clouds,280,2011-10-27 15:51:00
10:51 AM,45.0,23.0,42,30.04,10.0,West,15.0,-,N/A,,Partly Cloudy,280,2011-10-27 16:51:00
11:51 AM,48.0,23.0,37,30.04,10.0,WNW,21.9,29.9,N/A,,Clear,300,2011-10-27 17:51:00
12:51 PM,48.0,24.1,39,30.04,10.0,NW,21.9,28.8,N/A,,Clear,320,2011-10-27 18:51:00
1:51 PM,50.0,27.0,41,30.03,10.0,NW,16.1,24.2,N/A,,Partly Cloudy,320,2011-10-27 19:51:00
2:51 PM,48.0,26.1,42,30.05,10.0,WNW,13.8,21.9,N/A,,Mostly Cloudy,300,2011-10-27 20:51:00
3:51 PM,46.9,28.0,48,30.06,10.0,NW,12.7,-,0.00,,Mostly Cloudy,320,2011-10-27 21:51:00
4:51 PM,46.0,24.1,42,30.07,10.0,WNW,11.5,23.0,N/A,,Partly Cloudy,300,2011-10-27 22:51:00
5:51 PM,42.1,23.0,47,30.10,10.0,WNW,9.2,-,N/A,,Partly Cloudy,290,2011-10-27 23:51:00
6:51 PM,36.0,21.9,57,30.14,10.0,WNW,6.9,-,N/A,,Clear,290,2011-10-28 00:51:00
7:51 PM,35.1,24.1,64,30.15,10.0,Calm,Calm,-,N/A,,Scattered Clouds,0,2011-10-28 01:51:00
8:51 PM,32.0,21.9,66,30.18,10.0,WSW,3.5,-,N/A,,Clear,250,2011-10-28 02:51:00
9:51 PM,30.9,21.9,69,30.17,10.0,WSW,3.5,-,N/A,,Clear,240,2011-10-28 03:51:00
10:51 PM,28.9,21.0,72,30.17,10.0,West,3.5,-,N/A,,Clear,280,2011-10-28 04:51:00
11:51 PM,23.0,18.0,81,30.19,10.0,Calm,Calm,-,N/A,,Clear,0,2011-10-28 05:51:00